createdAt,value
2018-05-04T00:00:13.704Z,62.11
2018-05-04T00:01:13.768Z,62.21
2018-05-04T00:02:13.927Z,62.11
2018-05-04T00:03:14.339Z,62.40
2018-05-04T00:04:14.383Z,62.97
2018-05-04T00:05:14.433Z,63.54
2018-05-04T00:06:14.612Z,62.97
2018-05-04T00:07:14.777Z,63.54
2018-05-04T00:08:14.945Z,63.35
2018-05-04T00:09:15.105Z,62.87
2018-05-04T00:10:15.485Z,63.26
2018-05-04T00:11:15.384Z,62.49
2018-05-04T00:12:15.550Z,62.40
2018-05-04T00:13:15.720Z,62.87
2018-05-04T00:14:15.896Z,62.97
2018-05-04T00:15:16.087Z,63.16
2018-05-04T00:16:16.246Z,62.30
2018-05-04T00:17:16.415Z,62.21
2018-05-04T00:18:16.574Z,62.11
2018-05-04T00:19:16.741Z,61.54
2018-05-04T00:20:16.902Z,61.72
2018-05-04T00:21:17.106Z,61.82
2018-05-04T00:22:17.252Z,61.92
2018-05-04T00:23:17.421Z,61.92
2018-05-04T00:24:17.590Z,61.63
2018-05-04T00:25:17.757Z,61.82
2018-05-04T00:26:17.924Z,61.35
2018-05-04T00:27:18.079Z,61.35
2018-05-04T00:28:18.252Z,61.44
2018-05-04T00:29:18.420Z,61.72
2018-05-04T00:30:18.591Z,62.30
2018-05-04T00:31:18.757Z,62.21
2018-05-04T00:32:18.920Z,62.27
2018-05-04T00:33:19.082Z,62.21
2018-05-04T00:34:19.246Z,62.11
2018-05-04T00:35:19.423Z,62.30
2018-05-04T00:36:19.578Z,62.40
2018-05-04T00:37:19.746Z,62.40
2018-05-04T00:38:19.911Z,62.40
2018-05-04T00:39:20.079Z,62.11
2018-05-04T00:40:20.255Z,62.01
2018-05-04T00:41:20.416Z,63.03
2018-05-04T00:42:20.593Z,62.11
2018-05-04T00:43:20.781Z,63.13
2018-05-04T00:44:20.936Z,63.03
2018-05-04T00:45:21.097Z,63.03
2018-05-04T00:46:21.266Z,63.23
2018-05-04T00:47:21.446Z,63.42
2018-05-04T00:48:21.618Z,63.23
2018-05-04T00:49:21.784Z,63.23
2018-05-04T00:50:21.946Z,63.42
2018-05-04T00:51:22.164Z,63.03
2018-05-04T00:52:22.809Z,63.42
2018-05-04T00:53:22.484Z,63.13
2018-05-04T00:54:22.649Z,62.75
2018-05-04T00:55:22.814Z,62.18
2018-05-04T00:56:22.986Z,61.69
2018-05-04T00:57:23.156Z,61.69
2018-05-04T00:58:23.317Z,62.37
2018-05-04T00:59:23.480Z,62.18
2018-05-04T01:00:23.663Z,62.37
2018-05-04T01:01:23.829Z,62.08
2018-05-04T01:02:23.993Z,62.08
2018-05-04T01:03:24.153Z,61.89
2018-05-04T01:04:24.314Z,61.69
2018-05-04T01:05:24.481Z,61.03
2018-05-04T01:06:24.645Z,61.03
2018-05-04T01:07:24.822Z,61.60
2018-05-04T01:08:24.981Z,61.22
2018-05-04T01:09:25.155Z,61.22
2018-05-04T01:10:25.318Z,61.60
2018-05-04T01:11:25.499Z,62.65
2018-05-04T01:12:25.648Z,63.51
2018-05-04T01:13:25.816Z,63.51
2018-05-04T01:14:25.988Z,64.09
2018-05-04T01:15:26.150Z,63.70
2018-05-04T01:16:26.313Z,64.85
2018-05-04T01:17:26.485Z,64.75
2018-05-04T01:18:26.649Z,64.85
2018-05-04T01:19:26.812Z,64.75
2018-05-04T01:20:26.978Z,64.37
2018-05-04T01:21:27.142Z,63.42
2018-05-04T01:22:27.309Z,64.09
2018-05-04T01:23:27.479Z,64.09
2018-05-04T01:24:27.646Z,64.28
2018-05-04T01:25:27.804Z,64.56
2018-05-04T01:26:27.978Z,64.65
2018-05-04T01:27:28.145Z,65.52
2018-05-04T01:28:28.311Z,65.04
2018-05-04T01:29:28.476Z,65.04
2018-05-04T01:30:28.642Z,64.37
2018-05-04T01:31:28.813Z,64.81
2018-05-04T01:32:28.972Z,65.39
2018-05-04T01:33:29.138Z,65.30
2018-05-04T01:34:29.304Z,64.43
2018-05-04T01:35:29.467Z,65.20
2018-05-04T01:36:29.626Z,65.58
2018-05-04T01:37:29.795Z,65.87
2018-05-04T01:38:29.963Z,65.67
2018-05-04T01:39:30.123Z,65.58
2018-05-04T01:40:30.294Z,65.77
2018-05-04T01:41:30.453Z,66.25
2018-05-04T01:42:30.617Z,66.25
2018-05-04T01:43:30.783Z,66.25
2018-05-04T01:44:30.948Z,66.63
2018-05-04T01:45:31.120Z,66.06
2018-05-04T01:46:31.282Z,66.15
2018-05-04T01:47:31.452Z,66.25
2018-05-04T01:48:31.616Z,66.06
2018-05-04T01:49:31.776Z,66.06
2018-05-04T01:50:31.941Z,66.25
2018-05-04T01:51:32.114Z,66.22
2018-05-04T01:52:32.277Z,66.06
2018-05-04T01:53:32.446Z,66.22
2018-05-04T01:54:32.613Z,66.63
2018-05-04T01:55:32.774Z,67.55
2018-05-04T01:56:32.936Z,67.40
2018-05-04T01:57:33.109Z,67.49
2018-05-04T01:58:33.267Z,67.40
2018-05-04T01:59:33.441Z,66.44
2018-05-04T02:00:33.599Z,66.35
2018-05-04T02:01:33.771Z,65.39
2018-05-04T02:02:33.937Z,65.58
2018-05-04T02:03:34.108Z,66.82
2018-05-04T02:04:34.275Z,67.97
2018-05-04T02:05:34.443Z,68.16
2018-05-04T02:06:34.608Z,68.63
2018-05-04T02:07:34.776Z,68.63
2018-05-04T02:08:34.935Z,68.54
2018-05-04T02:09:35.103Z,68.92
2018-05-04T02:10:35.267Z,68.06
2018-05-04T02:11:35.444Z,68.06
2018-05-04T02:12:35.610Z,67.77
2018-05-04T02:13:35.779Z,67.30
2018-05-04T02:14:35.940Z,67.21
2018-05-04T02:15:36.109Z,67.58
2018-05-04T02:16:36.274Z,68.16
2018-05-04T02:17:36.441Z,68.26
2018-05-04T02:18:36.608Z,68.54
2018-05-04T02:19:36.772Z,68.63
2018-05-04T02:20:36.936Z,68.26
2018-05-04T02:21:37.100Z,68.63
2018-05-04T02:22:37.267Z,67.68
2018-05-04T02:23:37.434Z,67.58
2018-05-04T02:24:37.602Z,67.58
2018-05-04T02:25:37.759Z,67.87
2018-05-04T02:26:37.926Z,68.16
2018-05-04T02:27:38.086Z,66.25
2018-05-04T02:28:38.250Z,66.25
2018-05-04T02:29:38.420Z,65.39
2018-05-04T02:30:38.588Z,65.77
2018-05-04T02:31:38.751Z,65.58
2018-05-04T02:32:38.924Z,66.22
2018-05-04T02:33:39.081Z,67.17
2018-05-04T02:34:39.244Z,67.17
2018-05-04T02:35:40.248Z,67.46
2018-05-04T02:36:39.567Z,67.65
2018-05-04T02:37:39.730Z,67.55
2018-05-04T02:38:39.899Z,67.83
2018-05-04T02:39:40.074Z,67.93
2018-05-04T02:40:40.220Z,67.65
2018-05-04T02:41:40.388Z,67.65
2018-05-04T02:42:40.634Z,68.12
2018-05-04T02:43:40.714Z,68.60
2018-05-04T02:44:40.877Z,68.76
2018-05-04T02:45:41.044Z,69.04
2018-05-04T02:46:41.207Z,69.43
2018-05-04T02:47:41.378Z,69.04
2018-05-04T02:48:41.542Z,69.04
2018-05-04T02:49:41.705Z,69.33
2018-05-04T02:50:41.871Z,69.04
2018-05-04T02:51:42.043Z,69.23
2018-05-04T02:52:42.207Z,69.43
2018-05-04T02:53:42.366Z,70.00
2018-05-04T02:54:42.532Z,70.19
2018-05-04T02:55:42.696Z,70.00
2018-05-04T02:56:42.861Z,69.81
2018-05-04T02:57:43.020Z,69.62
2018-05-04T02:58:43.188Z,69.71
2018-05-04T02:59:43.372Z,69.43
2018-05-04T03:00:43.523Z,70.09
2018-05-04T03:01:43.682Z,70.00
2018-05-04T03:02:43.846Z,69.90
2018-05-04T03:03:44.014Z,70.19
2018-05-04T03:04:44.185Z,70.00
2018-05-04T03:05:44.342Z,70.28
2018-05-04T03:06:44.510Z,69.71
2018-05-04T03:07:44.681Z,70.00
2018-05-04T03:08:44.848Z,69.81
2018-05-04T03:09:45.012Z,70.19
2018-05-04T03:10:45.178Z,70.28
2018-05-04T03:11:45.343Z,70.38
2018-05-04T03:12:45.506Z,70.19
2018-05-04T03:13:45.666Z,69.71
2018-05-04T03:14:45.834Z,70.00
2018-05-04T03:15:45.997Z,69.62
2018-05-04T03:16:46.168Z,69.90
2018-05-04T03:17:46.343Z,70.09
2018-05-04T03:18:46.512Z,69.71
2018-05-04T03:19:46.686Z,69.90
2018-05-04T03:20:46.854Z,70.22
2018-05-04T03:21:47.014Z,70.42
2018-05-04T03:22:47.179Z,70.47
2018-05-04T03:23:47.340Z,70.00
2018-05-04T03:24:47.505Z,70.32
2018-05-04T03:25:47.671Z,70.67
2018-05-04T03:26:47.839Z,69.93
2018-05-04T03:27:47.997Z,70.13
2018-05-04T03:28:48.171Z,70.03
2018-05-04T03:29:48.341Z,69.65
2018-05-04T03:30:48.512Z,70.00
2018-05-04T03:31:48.675Z,70.61
2018-05-04T03:32:48.839Z,70.89
2018-05-04T03:33:48.991Z,70.89
2018-05-04T03:34:49.163Z,72.03
2018-05-04T03:35:49.439Z,71.84
2018-05-04T03:36:49.529Z,71.66
2018-05-04T03:37:49.696Z,71.75
2018-05-04T03:38:49.864Z,70.98
2018-05-04T03:39:50.437Z,70.89
2018-05-04T03:40:50.633Z,70.79
2018-05-04T03:41:50.801Z,70.61
2018-05-04T03:42:51.068Z,71.27
2018-05-04T03:43:51.191Z,71.27
2018-05-04T03:44:51.327Z,70.13
2018-05-04T03:45:51.524Z,69.93
2018-05-04T03:46:51.727Z,69.27
2018-05-04T03:47:51.806Z,69.27
2018-05-04T03:48:52.002Z,68.79
2018-05-04T03:49:52.197Z,69.37
2018-05-04T03:50:52.421Z,69.37
2018-05-04T03:51:52.088Z,68.85
2018-05-04T03:52:52.248Z,68.85
2018-05-04T03:53:52.411Z,68.66
2018-05-04T03:54:52.583Z,69.14
2018-05-04T03:55:52.742Z,69.14
2018-05-04T03:56:52.910Z,69.23
2018-05-04T03:57:53.834Z,68.85
2018-05-04T03:58:53.250Z,68.66
2018-05-04T03:59:53.411Z,68.76
2018-05-04T04:00:53.581Z,68.95
2018-05-04T04:01:53.762Z,69.14
2018-05-04T04:02:53.987Z,69.04
2018-05-04T04:03:54.088Z,69.04
2018-05-04T04:04:54.259Z,69.52
2018-05-04T04:05:54.413Z,69.71
2018-05-04T04:06:54.576Z,70.38
2018-05-04T04:07:54.746Z,70.57
2018-05-04T04:08:54.913Z,70.09
2018-05-04T04:09:55.078Z,70.47
2018-05-04T04:10:55.240Z,70.76
2018-05-04T04:11:55.410Z,70.76
2018-05-04T04:12:55.582Z,71.04
2018-05-04T04:13:55.735Z,70.67
2018-05-04T04:14:55.901Z,70.00
2018-05-04T04:15:56.065Z,70.28
2018-05-04T04:16:56.227Z,70.09
2018-05-04T04:17:56.472Z,70.09
2018-05-04T04:18:56.558Z,70.38
2018-05-04T04:19:56.720Z,70.28
2018-05-04T04:20:56.894Z,70.09
2018-05-04T04:21:57.046Z,70.09
2018-05-04T04:22:57.217Z,70.09
2018-05-04T04:23:57.383Z,70.09
2018-05-04T04:24:57.551Z,70.38
2018-05-04T04:25:57.715Z,70.00
2018-05-04T04:26:57.883Z,69.90
2018-05-04T04:27:58.049Z,69.43
2018-05-04T04:28:58.221Z,69.62
2018-05-04T04:29:58.416Z,69.23
2018-05-04T04:30:58.594Z,69.23
2018-05-04T04:31:58.761Z,69.43
2018-05-04T04:32:58.925Z,70.00
2018-05-04T04:33:59.090Z,69.71
2018-05-04T04:34:59.264Z,69.23
2018-05-04T04:35:59.428Z,69.23
2018-05-04T04:36:59.585Z,69.04
2018-05-04T04:37:59.768Z,69.14
2018-05-04T04:38:59.928Z,69.33
2018-05-04T04:40:00.092Z,69.04
2018-05-04T04:41:00.256Z,69.17
2018-05-04T04:42:00.423Z,69.27
2018-05-04T04:43:00.581Z,69.37
2018-05-04T04:44:00.743Z,68.51
2018-05-04T04:45:00.907Z,68.32
2018-05-04T04:46:01.075Z,68.03
2018-05-04T04:47:01.247Z,67.65
2018-05-04T04:48:01.407Z,68.03
2018-05-04T04:49:01.575Z,68.06
2018-05-04T04:50:01.737Z,67.55
2018-05-04T04:51:01.901Z,67.46
2018-05-04T04:52:02.070Z,67.55
2018-05-04T04:53:02.236Z,67.83
2018-05-04T04:54:02.393Z,67.55
2018-05-04T04:55:02.563Z,67.65
2018-05-04T04:56:02.735Z,68.03
2018-05-04T04:57:02.904Z,67.58
2018-05-04T04:58:03.068Z,67.30
2018-05-04T04:59:03.239Z,66.82
2018-05-04T05:00:03.407Z,67.58
2018-05-04T05:01:03.577Z,67.55
2018-05-04T05:02:03.749Z,67.49
2018-05-04T05:03:03.912Z,67.01
2018-05-04T05:04:04.074Z,66.82
2018-05-04T05:05:04.255Z,66.15
2018-05-04T05:06:04.427Z,66.82
2018-05-04T05:07:04.595Z,66.44
2018-05-04T05:08:04.765Z,67.49
2018-05-04T05:09:04.934Z,66.92
2018-05-04T05:10:05.101Z,66.82
2018-05-04T05:11:05.270Z,66.25
2018-05-04T05:12:05.437Z,65.96
2018-05-04T05:13:05.604Z,66.28
2018-05-04T05:14:05.772Z,66.28
2018-05-04T05:15:05.941Z,66.00
2018-05-04T05:16:06.105Z,66.28
2018-05-04T05:17:06.270Z,65.80
2018-05-04T05:18:06.437Z,65.42
2018-05-04T05:19:06.607Z,65.04
2018-05-04T05:20:06.777Z,64.47
2018-05-04T05:21:06.938Z,64.18
2018-05-04T05:22:07.110Z,64.56
2018-05-04T05:23:07.270Z,64.56
2018-05-04T05:24:07.439Z,64.85
2018-05-04T05:25:07.607Z,64.56
2018-05-04T05:26:07.778Z,65.07
2018-05-04T05:27:07.968Z,64.98
2018-05-04T05:28:08.129Z,64.22
2018-05-04T05:29:08.293Z,64.50
2018-05-04T05:30:08.477Z,64.78
2018-05-04T05:31:08.643Z,64.69
2018-05-04T05:32:08.810Z,63.67
2018-05-04T05:33:08.974Z,62.87
2018-05-04T05:34:09.141Z,63.67
2018-05-04T05:35:09.301Z,63.00
2018-05-04T05:36:09.475Z,61.57
2018-05-04T05:37:09.643Z,61.85
2018-05-04T05:38:09.805Z,61.66
2018-05-04T05:39:09.971Z,60.52
2018-05-04T05:40:10.138Z,60.13
2018-05-04T05:41:10.302Z,59.94
2018-05-04T05:42:10.470Z,60.23
2018-05-04T05:43:10.635Z,59.94
2018-05-04T05:44:10.809Z,59.40
2018-05-04T05:45:10.975Z,59.49
2018-05-04T05:46:11.136Z,58.54
2018-05-04T05:47:11.298Z,59.01
2018-05-04T05:48:11.474Z,60.16
2018-05-04T05:49:11.636Z,60.16
2018-05-04T05:50:11.800Z,59.20
2018-05-04T05:51:11.968Z,59.59
2018-05-04T05:52:12.140Z,59.97
2018-05-04T05:53:12.303Z,59.30
2018-05-04T05:54:12.471Z,58.92
2018-05-04T05:55:12.633Z,57.48
2018-05-04T05:56:12.811Z,57.10
2018-05-04T05:57:12.970Z,57.70
2018-05-04T05:58:13.133Z,58.47
2018-05-04T05:59:13.303Z,57.99
2018-05-04T06:00:13.464Z,57.42
2018-05-04T06:01:13.637Z,57.99
2018-05-04T06:02:13.804Z,58.18
2018-05-04T06:03:13.971Z,57.04
2018-05-04T06:04:14.135Z,56.46
2018-05-04T06:06:08.233Z,55.05
2018-05-04T06:07:07.525Z,55.73
2018-05-04T06:08:07.698Z,55.44
2018-05-04T06:09:07.877Z,55.51
2018-05-04T06:10:08.155Z,54.86
2018-05-04T06:11:08.406Z,54.86
2018-05-04T06:12:08.734Z,54.86
2018-05-04T06:13:09.027Z,55.73
2018-05-04T06:14:08.946Z,55.56
2018-05-04T06:15:09.136Z,55.08
2018-05-04T06:16:09.101Z,55.27
2018-05-04T06:17:09.425Z,54.60
2018-05-04T06:18:09.897Z,54.32
2018-05-04T06:19:09.726Z,54.60
2018-05-04T06:20:09.895Z,53.93
2018-05-04T06:21:10.270Z,53.45
2018-05-04T06:22:10.327Z,53.16
2018-05-04T06:23:10.442Z,53.83
2018-05-04T06:24:10.520Z,53.07
2018-05-04T06:25:10.835Z,53.00
2018-05-04T06:26:10.834Z,52.69
2018-05-04T06:27:11.005Z,52.62
2018-05-04T06:28:11.235Z,52.81
2018-05-04T06:29:11.337Z,53.00
2018-05-04T06:30:12.306Z,52.04
2018-05-04T06:31:11.735Z,52.23
2018-05-04T06:32:12.263Z,52.04
2018-05-04T06:33:13.981Z,52.81
2018-05-04T06:34:12.521Z,52.04
2018-05-04T06:35:12.379Z,52.14
2018-05-04T06:36:12.652Z,51.85
2018-05-04T06:37:12.779Z,51.37
2018-05-04T06:38:13.115Z,50.89
2018-05-04T06:39:13.235Z,51.20
2018-05-04T06:40:14.218Z,51.59
2018-05-04T06:41:14.107Z,51.30
2018-05-04T06:42:13.800Z,51.10
2018-05-04T06:43:13.987Z,50.82
2018-05-04T06:44:14.025Z,50.15
2018-05-04T06:45:14.188Z,50.46
2018-05-04T06:46:14.822Z,50.84
2018-05-04T06:47:14.544Z,50.82
2018-05-04T06:48:15.762Z,50.46
2018-05-04T06:49:14.861Z,51.42
2018-05-04T06:50:16.068Z,50.56
2018-05-04T06:51:15.160Z,49.86
2018-05-04T06:52:15.325Z,49.79
2018-05-04T06:53:15.476Z,49.41
2018-05-04T06:54:15.636Z,49.79
2018-05-04T06:55:15.807Z,49.60
2018-05-04T06:56:15.981Z,50.08
2018-05-04T06:57:16.134Z,49.41
2018-05-04T06:58:16.295Z,49.50
2018-05-04T06:59:16.491Z,49.33
2018-05-04T07:00:16.636Z,49.05
2018-05-04T07:01:16.812Z,49.33
2018-05-04T07:02:16.982Z,48.85
2018-05-04T07:03:17.151Z,48.85
2018-05-04T07:04:17.322Z,49.15
2018-05-04T07:05:17.490Z,49.17
2018-05-04T07:06:17.664Z,48.59
2018-05-04T07:07:17.837Z,48.30
2018-05-04T07:08:17.998Z,47.92
2018-05-04T07:09:18.171Z,47.34
2018-05-04T07:10:18.365Z,46.96
2018-05-04T07:11:18.506Z,46.77
2018-05-04T07:12:18.673Z,45.71
2018-05-04T07:13:18.842Z,45.90
2018-05-04T07:14:19.013Z,46.38
2018-05-04T07:15:19.193Z,45.52
2018-05-04T07:16:19.354Z,44.87
2018-05-04T07:17:19.541Z,44.48
2018-05-04T07:18:19.704Z,44.37
2018-05-04T07:19:19.928Z,43.12
2018-05-04T07:20:20.036Z,42.71
2018-05-04T07:21:20.202Z,43.12
2018-05-04T07:22:20.374Z,43.31
2018-05-04T07:23:20.539Z,42.44
2018-05-04T07:24:20.707Z,42.06
2018-05-04T07:25:20.874Z,42.73
2018-05-04T07:26:21.040Z,42.83
2018-05-04T07:27:21.208Z,43.71
2018-05-04T07:28:21.381Z,43.62
2018-05-04T07:29:21.542Z,43.62
2018-05-04T07:30:21.717Z,42.85
2018-05-04T07:31:21.882Z,42.37
2018-05-04T07:32:22.052Z,41.89
2018-05-04T07:33:22.220Z,41.60
2018-05-04T07:34:22.385Z,41.53
2018-05-04T07:35:22.555Z,41.05
2018-05-04T07:36:22.723Z,41.14
2018-05-04T07:37:22.886Z,40.95
2018-05-04T07:38:23.058Z,39.79
2018-05-04T07:39:23.228Z,39.99
2018-05-04T07:40:23.419Z,39.24
2018-05-04T07:41:23.608Z,37.79
2018-05-04T07:42:23.757Z,38.37
2018-05-04T07:43:23.932Z,38.85
2018-05-04T07:44:24.099Z,39.62
2018-05-04T07:45:24.324Z,39.14
2018-05-04T07:46:24.965Z,37.22
2018-05-04T07:47:24.643Z,37.02
2018-05-04T07:48:25.388Z,37.70
2018-05-04T07:49:25.044Z,37.79
2018-05-04T07:50:25.230Z,38.66
2018-05-04T07:51:25.401Z,38.18
2018-05-04T07:52:25.570Z,38.37
2018-05-04T07:53:25.820Z,37.70
2018-05-04T07:54:25.920Z,36.64
2018-05-04T07:55:26.084Z,36.74
2018-05-04T07:56:26.275Z,37.24
2018-05-04T07:57:26.443Z,37.34
2018-05-04T07:58:26.610Z,37.24
2018-05-04T07:59:26.778Z,36.95
2018-05-04T08:00:26.951Z,36.76
2018-05-04T08:01:27.122Z,36.76
2018-05-04T08:02:27.284Z,36.66
2018-05-04T08:03:27.456Z,36.95
2018-05-04T08:04:27.625Z,37.64
2018-05-04T08:05:27.801Z,37.72
2018-05-04T08:06:27.970Z,37.16
2018-05-04T08:07:28.139Z,37.54
2018-05-04T08:08:28.351Z,37.16
2018-05-04T08:09:28.485Z,36.77
2018-05-04T08:10:28.661Z,35.33
2018-05-04T08:11:29.476Z,35.14
2018-05-04T08:12:29.013Z,33.79
2018-05-04T08:13:29.182Z,33.59
2018-05-04T08:14:29.355Z,34.64
2018-05-04T08:15:29.527Z,34.75
2018-05-04T08:16:29.697Z,34.84
2018-05-04T08:17:29.867Z,34.56
2018-05-04T08:18:30.036Z,34.46
2018-05-04T08:19:30.205Z,34.75
2018-05-04T08:20:30.376Z,33.89
2018-05-04T08:21:30.552Z,34.48
2018-05-04T08:22:30.720Z,34.29
2018-05-04T08:23:30.898Z,33.02
2018-05-04T08:24:31.061Z,33.12
2018-05-04T08:25:31.239Z,33.02
2018-05-04T08:26:31.409Z,33.03
2018-05-04T08:27:31.575Z,32.94
2018-05-04T08:28:31.749Z,33.23
2018-05-04T08:29:31.914Z,32.94
2018-05-04T08:30:32.084Z,33.61
2018-05-04T08:31:32.275Z,33.63
2018-05-04T08:32:32.452Z,33.92
2018-05-04T08:33:32.630Z,33.73
2018-05-04T08:34:32.822Z,32.47
2018-05-04T08:35:32.994Z,32.18
2018-05-04T08:36:33.162Z,31.80
2018-05-04T08:37:33.333Z,31.60
2018-05-04T08:38:33.504Z,31.51
2018-05-04T08:39:33.674Z,31.41
2018-05-04T08:40:33.927Z,31.70
2018-05-04T08:41:34.017Z,30.93
2018-05-04T08:42:34.194Z,30.85
2018-05-04T08:43:34.365Z,31.14
2018-05-04T08:44:34.534Z,31.24
2018-05-04T08:45:34.700Z,30.94
2018-05-04T08:46:34.871Z,30.16
2018-05-04T08:47:35.042Z,29.89
2018-05-04T08:48:35.219Z,29.69
2018-05-04T08:49:35.385Z,29.80
2018-05-04T08:50:35.559Z,29.82
2018-05-04T08:51:35.744Z,29.91
2018-05-04T08:52:35.918Z,29.85
2018-05-04T08:53:36.094Z,28.99
2018-05-04T08:54:36.273Z,27.64
2018-05-04T08:55:36.443Z,26.23
2018-05-04T08:56:36.616Z,25.40
2018-05-04T08:57:36.803Z,24.06
2018-05-04T08:58:36.974Z,21.77
2018-05-04T08:59:37.158Z,19.86
2018-05-04T09:00:37.318Z,19.50
2018-05-04T09:01:37.494Z,18.74
2018-05-04T09:02:37.664Z,17.78
2018-05-04T09:03:37.836Z,16.72
2018-05-04T09:04:38.005Z,15.95
2018-05-04T09:05:38.280Z,15.66
2018-05-04T09:06:38.380Z,14.89
2018-05-04T09:07:38.569Z,14.98
2018-05-04T09:08:38.740Z,14.79
2018-05-04T09:09:38.921Z,14.80
2018-05-04T09:10:39.102Z,14.03
2018-05-04T09:11:39.296Z,13.43
2018-05-04T09:12:39.518Z,14.31
2018-05-04T09:13:39.637Z,14.40
2018-05-04T09:14:39.815Z,13.81
2018-05-04T09:15:39.990Z,13.33
2018-05-04T09:16:40.222Z,12.93
2018-05-04T09:19:26.545Z,13.33
2018-05-04T09:20:26.722Z,12.95
2018-05-04T09:21:26.900Z,13.06
2018-05-04T09:22:27.082Z,12.96
2018-05-04T09:23:27.255Z,12.77
2018-05-04T09:24:27.435Z,12.09
2018-05-04T09:25:27.620Z,11.41
2018-05-04T09:26:27.814Z,11.02
2018-05-04T09:27:27.981Z,11.31
2018-05-04T09:28:28.175Z,11.71
2018-05-04T09:29:28.360Z,11.31
2018-05-04T09:30:28.532Z,11.41
2018-05-04T09:31:28.716Z,11.42
2018-05-04T09:32:28.895Z,10.34
2018-05-04T09:33:29.082Z,9.56
2018-05-04T09:34:29.265Z,9.56
2018-05-04T09:35:29.468Z,9.66
2018-05-04T09:36:29.655Z,9.56
2018-05-04T09:37:29.856Z,9.06
2018-05-04T09:38:30.027Z,9.56
2018-05-04T09:39:30.204Z,9.27
2018-05-04T09:40:30.384Z,9.36
2018-05-04T09:41:30.636Z,9.75
2018-05-04T09:42:30.754Z,9.16
2018-05-04T09:43:31.004Z,9.53
2018-05-04T09:44:31.114Z,10.03
2018-05-04T09:45:31.301Z,9.84
2018-05-04T09:46:31.487Z,9.34
2018-05-04T09:47:31.671Z,9.34
2018-05-04T09:48:31.857Z,9.83
2018-05-04T09:49:32.039Z,9.92
2018-05-04T09:50:32.225Z,10.41
2018-05-04T09:51:32.411Z,9.73
2018-05-04T09:52:32.591Z,9.74
2018-05-04T09:53:32.778Z,9.55
2018-05-04T09:54:32.966Z,9.16
2018-05-04T09:55:33.152Z,9.06
2018-05-04T09:56:33.335Z,9.16
2018-05-04T09:57:33.534Z,9.06
2018-05-04T09:58:33.717Z,9.74
2018-05-04T09:59:33.897Z,9.36
2018-05-04T10:00:34.084Z,8.77
2018-05-04T10:01:34.277Z,9.07
2018-05-04T10:02:34.451Z,8.76
2018-05-04T10:03:35.542Z,9.06
2018-05-04T10:04:34.851Z,9.45
2018-05-04T10:05:35.027Z,9.16
2018-05-04T10:06:35.220Z,9.06
2018-05-04T10:07:35.425Z,8.87
2018-05-04T10:08:35.605Z,9.06
2018-05-04T10:09:35.792Z,8.87
2018-05-04T10:10:35.979Z,8.58
2018-05-04T10:11:36.182Z,8.48
2018-05-04T10:12:36.367Z,8.28
2018-05-04T10:13:36.558Z,8.48
2018-05-04T10:14:36.735Z,8.58
2018-05-04T10:15:36.929Z,8.59
2018-05-04T10:16:37.108Z,8.29
2018-05-04T10:17:37.298Z,8.10
2018-05-04T10:18:37.491Z,8.39
2018-05-04T10:19:37.686Z,8.98
2018-05-04T10:20:37.870Z,8.29
2018-05-04T10:21:38.058Z,9.17
2018-05-04T10:22:38.247Z,9.06
2018-05-04T10:23:38.435Z,9.56
2018-05-04T10:24:38.628Z,9.17
2018-05-04T10:25:38.814Z,8.89
2018-05-04T10:26:39.001Z,8.49
2018-05-04T10:27:39.188Z,8.39
2018-05-04T10:28:39.370Z,8.79
2018-05-04T10:29:39.555Z,8.50
2018-05-04T10:30:39.747Z,8.01
2018-05-04T10:31:39.935Z,8.41
2018-05-04T10:32:40.130Z,8.12
2018-05-04T10:33:40.320Z,8.22
2018-05-04T10:34:40.503Z,7.82
2018-05-04T10:35:40.697Z,8.01
2018-05-04T10:37:32.983Z,7.82
2018-05-04T10:38:33.241Z,7.92
2018-05-04T10:39:33.377Z,8.21
2018-05-04T10:40:33.568Z,8.50
2018-05-04T10:41:33.757Z,8.11
2018-05-04T10:42:33.941Z,8.01
2018-05-04T10:43:34.130Z,8.40
2018-05-04T10:44:34.313Z,8.01
2018-05-04T10:45:34.507Z,7.92
2018-05-04T10:46:34.703Z,7.82
2018-05-04T10:47:34.932Z,8.02
2018-05-04T10:48:35.095Z,8.12
2018-05-04T10:49:35.294Z,7.82
2018-05-04T10:50:35.486Z,8.71
2018-05-04T10:51:35.701Z,8.51
2018-05-04T10:52:35.863Z,9.11
2018-05-04T10:53:36.057Z,8.61
2018-05-04T10:54:36.246Z,8.40
2018-05-04T10:55:36.438Z,9.00
2018-05-04T10:56:36.630Z,8.61
2018-05-04T10:57:36.818Z,8.31
2018-05-04T10:58:37.013Z,8.12
2018-05-04T10:59:37.197Z,8.61
2018-05-04T11:00:37.394Z,8.02
2018-05-04T11:01:37.582Z,8.12
2018-05-04T11:02:37.780Z,8.03
2018-05-04T11:03:37.962Z,7.74
2018-05-04T11:04:38.164Z,7.74
2018-05-04T11:05:38.355Z,8.03
2018-05-04T11:06:38.543Z,7.34
2018-05-04T11:07:38.735Z,8.13
2018-05-04T11:08:38.927Z,8.12
2018-05-04T11:09:39.115Z,8.23
2018-05-04T11:10:39.314Z,8.33
2018-05-04T11:11:39.506Z,8.33
2018-05-04T11:12:39.696Z,8.03
2018-05-04T11:13:40.182Z,8.73
2018-05-04T11:14:40.148Z,7.94
2018-05-04T11:15:40.636Z,8.14
2018-05-04T11:16:40.602Z,8.03
2018-05-04T11:17:40.921Z,7.34
2018-05-04T11:18:41.223Z,7.84
2018-05-04T11:19:41.164Z,7.94
2018-05-04T11:20:41.388Z,8.53
2018-05-04T11:21:41.739Z,9.02
2018-05-04T11:22:42.088Z,9.01
2018-05-04T11:23:42.125Z,9.21
2018-05-04T11:24:42.493Z,8.73
2018-05-04T11:25:42.469Z,8.83
2018-05-04T11:26:42.891Z,8.14
2018-05-04T11:27:43.874Z,7.85
2018-05-04T11:28:43.146Z,7.86
2018-05-04T11:29:43.353Z,7.56
2018-05-04T11:30:44.139Z,7.06
2018-05-04T11:31:43.986Z,6.76
2018-05-04T11:32:44.217Z,6.96
2018-05-04T11:33:44.533Z,7.35
2018-05-04T11:34:44.310Z,7.95
2018-05-04T11:35:44.508Z,7.84
2018-05-04T11:36:44.985Z,7.74
2018-05-04T11:37:44.950Z,8.03
2018-05-04T11:38:45.300Z,8.43
2018-05-04T11:39:45.575Z,8.82
2018-05-04T11:40:46.270Z,8.32
2018-05-04T11:41:46.889Z,9.20
2018-05-04T11:42:46.575Z,9.59
2018-05-04T11:43:46.384Z,9.19
2018-05-04T11:44:46.568Z,9.40
2018-05-04T11:45:46.678Z,9.50
2018-05-04T11:46:46.851Z,9.12
2018-05-04T11:47:49.258Z,8.82
2018-05-04T11:48:47.852Z,8.03
2018-05-04T11:49:47.697Z,8.13
2018-05-04T11:50:47.662Z,7.93
2018-05-04T11:51:47.862Z,8.13
2018-05-04T11:52:47.951Z,7.93
2018-05-04T11:53:48.150Z,8.14
2018-05-04T11:54:48.342Z,8.53
2018-05-04T11:55:48.533Z,7.93
2018-05-04T11:56:48.741Z,8.04
2018-05-04T11:57:48.948Z,8.03
2018-05-04T11:58:49.138Z,8.24
2018-05-04T11:59:49.325Z,8.04
2018-05-04T12:00:49.521Z,7.95
2018-05-04T12:01:49.725Z,7.75
2018-05-04T12:02:49.898Z,7.35
2018-05-04T12:03:50.102Z,7.34
2018-05-04T12:04:50.332Z,7.24
2018-05-04T12:05:50.491Z,7.93
2018-05-04T12:06:50.689Z,8.13
2018-05-04T12:07:50.869Z,8.03
2018-05-04T12:08:51.074Z,8.12
2018-05-04T12:09:51.278Z,8.14
2018-05-04T12:10:51.482Z,8.03
2018-05-04T12:11:51.679Z,7.93
2018-05-04T12:12:51.870Z,8.23
2018-05-04T12:13:52.068Z,8.23
2018-05-04T12:14:52.275Z,8.03
2018-05-04T12:15:52.465Z,8.33
2018-05-04T12:16:52.650Z,9.22
2018-05-04T12:17:52.850Z,8.53
2018-05-04T12:18:53.051Z,9.11
2018-05-04T12:19:53.241Z,8.72
2018-05-04T12:20:53.440Z,7.93
2018-05-04T12:21:53.625Z,8.14
2018-05-04T12:22:53.833Z,7.94
2018-05-04T12:23:54.009Z,8.04
2018-05-04T12:24:54.216Z,8.14
2018-05-04T12:25:54.409Z,8.73
2018-05-04T12:26:54.604Z,8.43
2018-05-04T12:27:54.793Z,8.34
2018-05-04T12:28:54.992Z,8.44
2018-05-04T12:29:55.188Z,8.34
2018-05-04T12:30:55.382Z,8.25
2018-05-04T12:31:55.578Z,9.03
2018-05-04T12:32:55.776Z,9.03
2018-05-04T12:33:55.968Z,9.51
2018-05-04T12:34:56.166Z,9.11
2018-05-04T12:35:56.377Z,10.08
2018-05-04T12:36:56.565Z,11.54
2018-05-04T12:37:56.757Z,11.93
2018-05-04T12:38:56.952Z,12.32
2018-05-04T12:39:57.140Z,12.11
2018-05-04T12:40:57.336Z,13.18
2018-05-04T12:41:57.528Z,13.36
2018-05-04T12:42:57.717Z,14.33
2018-05-04T12:43:57.914Z,14.90
2018-05-04T12:44:58.101Z,15.69
2018-05-04T12:45:58.289Z,15.97
2018-05-04T12:46:58.524Z,16.44
2018-05-04T12:47:58.685Z,17.32
2018-05-04T12:48:58.870Z,17.97
2018-05-04T12:49:59.065Z,18.46
2018-05-04T12:50:59.266Z,19.91
2018-05-04T12:51:59.441Z,19.52
2018-05-04T12:52:59.633Z,19.80
2018-05-04T12:53:59.818Z,20.56
2018-05-04T12:55:00.004Z,21.34
2018-05-04T12:56:00.188Z,21.73
2018-05-04T12:57:00.363Z,21.34
2018-05-04T12:58:00.555Z,21.05
2018-05-04T12:59:00.743Z,21.44
2018-05-04T13:00:00.933Z,21.62
2018-05-04T13:01:01.119Z,22.69
2018-05-04T13:02:01.317Z,22.77
2018-05-04T13:03:01.486Z,23.65
2018-05-04T13:04:01.659Z,24.04